Time;durP1;ratioP1;P1;durP2;ratioP2;P2;SDS_P1;SDS_P2;PMS_P1;PMS_P2;Temp;Humidity;BMP_temperature;BMP_pressure;BME280_temperature;BME280_humidity;BME280_pressure;Samples;Min_cycle;Max_cycle;Signal;HPM_P1;HPM_P2
2021/10/23 00:19:16;;;;;;;;;;;;;;;;;;4595950;27;20485;-68
2021/10/23 00:21:41;;;;;;;17.05;11.95;;;;;;;;;;4333233;33;20062;-69
2021/10/23 00:24:07;;;;;;;14.32;11.98;;;;;;;;;;4332790;33;20533;-69
2021/10/23 00:26:33;;;;;;;12.63;11.35;;;;;;;;;;4333588;33;20111;-64
2021/10/23 00:28:59;;;;;;;13.27;11.57;;;;;;;;;;4333389;33;20098;-64
2021/10/23 00:31:25;;;;;;;12.27;10.90;;;;;;;;;;4333207;33;20211;-69
2021/10/23 00:33:51;;;;;;;12.15;10.90;;;;;;;;;;4331559;33;20110;-69
2021/10/23 00:36:17;;;;;;;13.43;11.82;;;;;;;;;;4333282;33;20142;-63
2021/10/23 00:38:43;;;;;;;13.27;11.00;;;;;;;;;;4319630;33;20660;-64
2021/10/23 00:41:08;;;;;;;15.65;11.73;;;;;;;;;;4333184;33;20123;-64
2021/10/23 00:43:38;;;;;;;15.45;11.68;;;;;;;;;;4333022;33;20109;-63
2021/10/23 00:46:04;;;;;;;13.45;11.90;;;;;;;;;;4333359;33;20200;-68
2021/10/23 00:48:30;;;;;;;14.85;10.75;;;;;;;;;;4333164;33;20113;-68
2021/10/23 00:50:56;;;;;;;12.05;10.50;;;;;;;;;;4333200;33;20106;-68
2021/10/23 00:53:22;;;;;;;12.43;10.95;;;;;;;;;;4333042;33;20115;-69
2021/10/23 00:55:48;;;;;;;14.50;11.27;;;;;;;;;;4333036;33;20107;-68
2021/10/23 00:58:14;;;;;;;12.75;11.35;;;;;;;;;;4319317;33;20466;-68
2021/10/23 01:00:40;;;;;;;13.65;11.45;;;;;;;;;;4332968;33;20193;-63
2021/10/23 01:03:06;;;;;;;12.85;11.55;;;;;;;;;;4333220;33;20134;-63
2021/10/23 01:05:32;;;;;;;15.88;12.25;;;;;;;;;;4332801;33;20592;-64
2021/10/23 01:07:58;;;;;;;12.50;10.93;;;;;;;;;;4332715;33;20161;-64
2021/10/23 01:10:24;;;;;;;16.65;12.00;;;;;;;;;;4319443;33;20080;-63
2021/10/23 01:12:50;;;;;;;16.20;11.20;;;;;;;;;;4332820;33;20135;-63
2021/10/23 01:15:18;;;;;;;13.98;11.25;;;;;;;;;;4332857;33;20510;-64
2021/10/23 01:17:44;;;;;;;14.27;11.57;;;;;;;;;;4332717;33;20514;-64
2021/10/23 01:20:11;;;;;;;16.45;11.73;;;;;;;;;;4332683;33;20206;-64
2021/10/23 01:22:36;;;;;;;12.65;10.70;;;;;;;;;;4333037;33;20164;-63
2021/10/23 01:25:03;;;;;;;11.32;10.13;;;;;;;;;;4333164;33;20234;-63
2021/10/23 01:27:28;;;;;;;14.70;10.88;;;;;;;;;;4332853;33;20126;-63
2021/10/23 01:29:54;;;;;;;13.35;10.40;;;;;;;;;;4332650;33;20126;-63
2021/10/23 01:32:20;;;;;;;15.43;10.55;;;;;;;;;;4319239;33;20131;-63
2021/10/23 01:34:46;;;;;;;13.27;11.40;;;;;;;;;;4332683;33;20181;-63
2021/10/23 01:37:13;;;;;;;14.27;11.02;;;;;;;;;;4332679;33;20137;-64
2021/10/23 01:39:39;;;;;;;15.93;11.40;;;;;;;;;;4332555;33;20130;-63
2021/10/23 01:42:05;;;;;;;15.82;11.25;;;;;;;;;;4332797;33;20118;-63
2021/10/23 01:44:33;;;;;;;14.15;11.68;;;;;;;;;;4333572;33;20123;-63
2021/10/23 01:47:00;;;;;;;12.93;11.50;;;;;;;;;;4334779;33;20106;-63
2021/10/23 01:49:25;;;;;;;12.25;10.95;;;;;;;;;;4334433;33;20525;-62
2021/10/23 01:51:51;;;;;;;14.50;11.68;;;;;;;;;;4321399;33;20188;-63
2021/10/23 01:54:17;;;;;;;13.15;11.80;;;;;;;;;;4334929;33;20113;-64
2021/10/23 01:56:43;;;;;;;13.68;11.50;;;;;;;;;;4334680;33;20130;-64
2021/10/23 01:59:09;;;;;;;16.20;12.68;;;;;;;;;;4334479;33;20102;-64
2021/10/23 02:01:35;;;;;;;15.68;11.75;;;;;;;;;;4321269;33;20122;-64
2021/10/23 02:04:01;;;;;;;16.08;11.52;;;;;;;;;;4334808;33;20202;-65
2021/10/23 02:06:26;;;;;;;14.35;10.40;;;;;;;;;;4334519;33;20231;-65
2021/10/23 02:08:52;;;;;;;13.02;11.40;;;;;;;;;;4334443;33;20507;-64
2021/10/23 02:11:18;;;;;;;13.25;10.80;;;;;;;;;;4320992;33;20110;-65
2021/10/23 02:13:44;;;;;;;15.27;11.95;;;;;;;;;;4334430;33;20203;-64
2021/10/23 02:16:11;;;;;;;12.57;11.27;;;;;;;;;;4334745;33;20150;-65
2021/10/23 02:18:36;;;;;;;12.93;11.35;;;;;;;;;;4334555;33;21011;-64
2021/10/23 02:21:02;;;;;;;14.70;10.82;;;;;;;;;;4334478;33;20545;-64
2021/10/23 02:23:28;;;;;;;13.35;11.95;;;;;;;;;;4334273;33;20115;-64
2021/10/23 02:25:54;;;;;;;14.63;12.52;;;;;;;;;;4334322;33;20122;-64
2021/10/23 02:28:20;;;;;;;13.00;10.18;;;;;;;;;;4334207;33;20496;-64
2021/10/23 02:30:46;;;;;;;12.15;10.85;;;;;;;;;;4334380;33;20201;-64
2021/10/23 02:33:12;;;;;;;11.95;10.43;;;;;;;;;;4334225;33;20196;-64
2021/10/23 02:35:37;;;;;;;13.70;10.13;;;;;;;;;;4334376;33;20102;-65
2021/10/23 02:38:03;;;;;;;12.23;10.82;;;;;;;;;;4334343;33;20187;-64
2021/10/23 02:40:29;;;;;;;15.98;11.95;;;;;;;;;;4334179;33;20114;-64
2021/10/23 02:42:55;;;;;;;14.02;11.00;;;;;;;;;;4334225;33;20449;-64
2021/10/23 02:45:21;;;;;;;14.90;11.75;;;;;;;;;;4334452;33;20135;-63
2021/10/23 02:47:47;;;;;;;12.88;10.95;;;;;;;;;;4334330;33;20446;-64
2021/10/23 02:50:12;;;;;;;15.50;11.80;;;;;;;;;;4334388;33;20095;-64
2021/10/23 02:52:38;;;;;;;12.77;11.50;;;;;;;;;;4334039;33;20125;-64
2021/10/23 02:55:05;;;;;;;14.87;11.40;;;;;;;;;;4334381;33;20118;-64
2021/10/23 02:57:31;;;;;;;13.75;12.02;;;;;;;;;;4333583;33;20118;-64
2021/10/23 02:59:57;;;;;;;15.55;12.25;;;;;;;;;;4334124;33;20628;-64
2021/10/23 03:02:23;;;;;;;13.80;11.52;;;;;;;;;;4320590;33;20102;-64
2021/10/23 03:04:49;;;;;;;14.25;11.52;;;;;;;;;;4334077;33;20130;-64
2021/10/23 03:07:15;;;;;;;13.48;10.90;;;;;;;;;;4334362;33;20124;-64
2021/10/23 03:09:40;;;;;;;15.40;12.13;;;;;;;;;;4334026;33;20217;-64
2021/10/23 03:12:06;;;;;;;15.18;11.68;;;;;;;;;;4334251;33;20087;-64
2021/10/23 03:14:32;;;;;;;15.50;11.60;;;;;;;;;;4334083;33;20195;-64
2021/10/23 03:16:58;;;;;;;13.20;10.95;;;;;;;;;;4320399;33;20118;-64
2021/10/23 03:19:24;;;;;;;15.15;12.05;;;;;;;;;;4333665;33;20117;-65
2021/10/23 03:21:50;;;;;;;14.90;11.80;;;;;;;;;;4333864;33;20222;-64
2021/10/23 03:24:16;;;;;;;13.15;10.57;;;;;;;;;;4333930;33;20132;-65
2021/10/23 03:26:41;;;;;;;14.45;11.63;;;;;;;;;;4333873;33;20122;-64
2021/10/23 03:29:07;;;;;;;13.15;11.77;;;;;;;;;;4333760;33;20099;-70
2021/10/23 03:31:33;;;;;;;19.50;12.40;;;;;;;;;;4333815;33;20102;-70
2021/10/23 03:33:59;;;;;;;14.35;10.65;;;;;;;;;;4333950;33;20517;-70
2021/10/23 03:36:25;;;;;;;15.27;12.00;;;;;;;;;;4333925;33;20192;-71
2021/10/23 03:38:51;;;;;;;13.90;11.77;;;;;;;;;;4333902;33;20181;-73
2021/10/23 03:41:17;;;;;;;14.45;11.57;;;;;;;;;;4333678;33;20115;-69
2021/10/23 03:43:43;;;;;;;13.27;11.40;;;;;;;;;;4333522;33;20151;-72
2021/10/23 03:46:08;;;;;;;13.45;12.05;;;;;;;;;;4333615;33;20118;-70
2021/10/23 03:48:34;;;;;;;16.20;11.68;;;;;;;;;;4320164;33;20095;-71
2021/10/23 03:51:00;;;;;;;13.80;12.25;;;;;;;;;;4333653;33;20110;-70
2021/10/23 03:53:26;;;;;;;15.70;12.13;;;;;;;;;;4319805;33;20118;-70
2021/10/23 03:55:52;;;;;;;15.15;12.15;;;;;;;;;;4320049;33;20204;-72
2021/10/23 03:58:18;;;;;;;14.05;12.60;;;;;;;;;;4333520;33;20154;-70
2021/10/23 04:00:44;;;;;;;17.15;12.73;;;;;;;;;;4333707;33;20087;-70
2021/10/23 04:03:09;;;;;;;14.80;12.45;;;;;;;;;;4333503;33;20115;-72
2021/10/23 04:05:35;;;;;;;13.82;12.37;;;;;;;;;;4333487;33;20114;-70
2021/10/23 04:08:01;;;;;;;15.18;11.50;;;;;;;;;;4332566;33;20550;-75
2021/10/23 04:10:27;;;;;;;17.70;11.82;;;;;;;;;;4333720;33;20225;-76
2021/10/23 04:12:53;;;;;;;13.35;11.95;;;;;;;;;;4333557;33;20245;-76
2021/10/23 04:15:19;;;;;;;16.20;12.32;;;;;;;;;;4333635;33;20111;-67
2021/10/23 04:17:45;;;;;;;10.55;8.73;;;;;;;;;;4333300;33;20127;-73
2021/10/23 04:20:11;;;;;;;16.48;12.27;;;;;;;;;;4333627;33;20109;-74
2021/10/23 04:22:37;;;;;;;12.95;11.10;;;;;;;;;;4333332;33;20540;-74
2021/10/23 04:25:03;;;;;;;18.08;11.18;;;;;;;;;;4333338;33;20228;-71
2021/10/23 04:27:29;;;;;;;15.60;11.90;;;;;;;;;;4333198;33;20099;-75
2021/10/23 04:29:55;;;;;;;14.43;10.20;;;;;;;;;;4333490;33;20098;-72
2021/10/23 04:32:21;;;;;;;13.73;11.23;;;;;;;;;;4333266;33;20517;-73
2021/10/23 04:34:47;;;;;;;14.77;10.32;;;;;;;;;;4333141;33;20133;-73
2021/10/23 04:37:13;;;;;;;13.73;11.32;;;;;;;;;;4333314;33;20532;-73
2021/10/23 04:39:39;;;;;;;12.70;11.02;;;;;;;;;;4333158;33;20115;-70
2021/10/23 04:42:05;;;;;;;13.13;11.25;;;;;;;;;;4333165;33;20119;-72
2021/10/23 04:44:30;;;;;;;11.90;9.55;;;;;;;;;;4319462;33;20099;-73
2021/10/23 04:46:56;;;;;;;13.88;9.55;;;;;;;;;;4333057;33;20091;-71
2021/10/23 04:49:22;;;;;;;14.40;10.43;;;;;;;;;;4319239;33;20281;-71
2021/10/23 04:51:48;;;;;;;13.55;10.15;;;;;;;;;;4332973;33;20096;-71
2021/10/23 04:54:14;;;;;;;14.05;11.60;;;;;;;;;;4332932;33;20138;-72
2021/10/23 04:56:40;;;;;;;17.12;11.48;;;;;;;;;;4333106;33;20114;-72
2021/10/23 04:59:06;;;;;;;14.02;12.05;;;;;;;;;;4334750;33;20188;-72
2021/10/23 05:01:31;;;;;;;17.12;12.45;;;;;;;;;;4333955;33;20567;-72
2021/10/23 05:03:57;;;;;;;12.23;10.90;;;;;;;;;;4333729;33;20126;-72
2021/10/23 05:06:27;;;;;;;15.45;11.85;;;;;;;;;;4333282;33;20095;-73
2021/10/23 05:08:53;;;;;;;14.18;11.05;;;;;;;;;;4332612;33;20548;-73
2021/10/23 05:11:19;;;;;;;15.68;11.48;;;;;;;;;;4332902;33;20114;-73
2021/10/23 05:13:45;;;;;;;14.13;12.00;;;;;;;;;;4333056;33;20117;-73
2021/10/23 05:16:10;;;;;;;14.40;12.93;;;;;;;;;;4332981;33;20121;-74
2021/10/23 05:18:36;;;;;;;20.10;12.48;;;;;;;;;;4332148;33;20114;-73
2021/10/23 05:21:02;;;;;;;14.90;11.75;;;;;;;;;;4333159;33;20111;-74
2021/10/23 05:23:28;;;;;;;17.58;12.32;;;;;;;;;;4332615;33;20212;-69
2021/10/23 05:25:54;;;;;;;19.85;12.30;;;;;;;;;;4332964;33;20137;-71
2021/10/23 05:28:20;;;;;;;15.93;11.38;;;;;;;;;;4332594;33;20510;-73
2021/10/23 05:30:45;;;;;;;15.38;11.55;;;;;;;;;;4332623;33;20549;-72
2021/10/23 05:33:11;;;;;;;18.33;11.10;;;;;;;;;;4332590;33;20511;-74
2021/10/23 05:35:37;;;;;;;16.02;10.68;;;;;;;;;;4332520;33;20173;-72
2021/10/23 05:38:03;;;;;;;16.58;13.32;;;;;;;;;;4332553;33;20129;-68
2021/10/23 05:40:29;;;;;;;15.45;11.65;;;;;;;;;;4332468;33;20489;-72
2021/10/23 05:42:55;;;;;;;15.80;11.10;;;;;;;;;;4306538;33;20593;-74
2021/10/23 05:45:21;;;;;;;13.60;11.50;;;;;;;;;;4318607;33;20111;-71
2021/10/23 06:21:53;;;;;;;13.80;10.88;;;;;;;;;;3857675;37;20722;-72
2021/10/23 06:24:19;;;;;;;12.60;10.15;;;;;;;;;;4408671;32;20099;-72
2021/10/23 06:26:45;;;;;;;15.02;9.40;;;;;;;;;;4404325;32;20192;-74
2021/10/23 06:29:11;;;;;;;16.00;11.38;;;;;;;;;;4404429;32;20599;-73
2021/10/23 06:31:36;;;;;;;14.38;9.85;;;;;;;;;;4397929;32;20531;-74
2021/10/23 06:34:02;;;;;;;14.05;10.80;;;;;;;;;;4399879;32;20189;-71
2021/10/23 06:36:28;;;;;;;16.62;10.60;;;;;;;;;;4404472;32;20137;-72
2021/10/23 06:38:54;;;;;;;12.25;10.07;;;;;;;;;;4404527;32;20097;-74
2021/10/23 06:41:20;;;;;;;14.38;10.45;;;;;;;;;;4404533;32;20116;-71
2021/10/23 06:43:46;;;;;;;12.25;10.95;;;;;;;;;;4404207;32;20117;-71
2021/10/23 06:46:12;;;;;;;15.68;10.52;;;;;;;;;;4403071;32;20097;-71
2021/10/23 06:48:38;;;;;;;12.02;10.68;;;;;;;;;;4404191;32;20218;-72
2021/10/23 06:51:04;;;;;;;15.20;10.10;;;;;;;;;;4404448;32;20109;-72
2021/10/23 06:53:30;;;;;;;13.38;10.10;;;;;;;;;;4402838;32;20118;-72
2021/10/23 06:55:56;;;;;;;18.98;10.32;;;;;;;;;;4404225;32;20511;-73
2021/10/23 06:58:22;;;;;;;12.60;9.55;;;;;;;;;;4404099;32;20120;-72
2021/10/23 07:00:47;;;;;;;11.00;9.90;;;;;;;;;;4404217;32;20105;-72
2021/10/23 07:03:16;;;;;;;11.63;9.80;;;;;;;;;;4404166;32;20104;-73
2021/10/23 07:05:43;;;;;;;12.18;9.73;;;;;;;;;;4404157;32;20113;-73
2021/10/23 07:08:09;;;;;;;15.90;9.95;;;;;;;;;;4404159;32;20113;-74
2021/10/23 07:10:35;;;;;;;10.75;8.82;;;;;;;;;;4404326;32;20188;-73
2021/10/23 07:13:02;;;;;;;14.25;9.93;;;;;;;;;;4404055;32;20513;-73
2021/10/23 07:15:29;;;;;;;16.15;9.77;;;;;;;;;;4404186;32;20472;-72
2021/10/23 07:17:55;;;;;;;13.40;10.63;;;;;;;;;;4404278;32;20128;-72
2021/10/23 07:20:21;;;;;;;13.48;10.43;;;;;;;;;;4389546;32;20116;-73
2021/10/23 07:22:47;;;;;;;11.00;9.88;;;;;;;;;;4388897;32;20197;-71
2021/10/23 07:25:13;;;;;;;12.30;9.63;;;;;;;;;;4388870;32;20116;-72
2021/10/23 07:27:39;;;;;;;17.05;10.98;;;;;;;;;;4387500;32;20082;-71
2021/10/23 07:30:09;;;;;;;14.48;9.75;;;;;;;;;;4387437;32;20523;-72
2021/10/23 07:32:38;;;;;;;10.32;7.12;;;;;;;;;;4380400;32;20112;-72
2021/10/23 07:35:05;;;;;;;11.25;7.90;;;;;;;;;;4379151;32;20106;-71
2021/10/23 07:37:31;;;;;;;14.48;8.77;;;;;;;;;;4394038;32;20109;-72
2021/10/23 07:39:58;;;;;;;9.57;7.78;;;;;;;;;;4393489;32;20124;-71
2021/10/23 07:42:24;;;;;;;11.45;7.45;;;;;;;;;;4392421;32;20090;-71
2021/10/23 07:44:50;;;;;;;11.55;8.20;;;;;;;;;;4378062;32;20134;-68
2021/10/23 07:47:18;;;;;;;11.57;8.20;;;;;;;;;;4376867;32;20129;-68
2021/10/23 07:49:45;;;;;;;10.40;8.30;;;;;;;;;;4352560;32;20530;-66
2021/10/23 07:52:10;;;;;;;14.60;8.00;;;;;;;;;;4378653;32;20206;-66
2021/10/23 07:54:36;;;;;;;9.00;7.03;;;;;;;;;;4376982;32;20608;-65
2021/10/23 07:57:03;;;;;;;10.23;7.72;;;;;;;;;;4378606;32;20128;-65
2021/10/23 07:59:29;;;;;;;9.98;8.32;;;;;;;;;;4378227;32;20564;-66
2021/10/23 08:02:21;;;;;;;14.02;7.68;;;;;;;;;;4378531;32;20098;-68
2021/10/23 08:04:47;;;;;;;14.57;8.07;;;;;;;;;;4374660;32;20122;-68
2021/10/23 08:07:13;;;;;;;10.93;6.85;;;;;;;;;;4378382;32;20297;-68
2021/10/23 08:09:38;;;;;;;12.27;7.40;;;;;;;;;;4378225;32;20531;-67
2021/10/23 08:12:05;;;;;;;13.50;7.60;;;;;;;;;;4378401;32;20124;-67
2021/10/23 08:14:33;;;;;;;8.73;7.05;;;;;;;;;;4378217;32;20089;-67
2021/10/23 08:16:59;;;;;;;10.70;7.32;;;;;;;;;;4379077;32;20113;-69
2021/10/23 08:19:25;;;;;;;12.00;7.45;;;;;;;;;;4378306;32;20109;-69
2021/10/23 08:21:51;;;;;;;8.50;7.20;;;;;;;;;;4378345;32;20098;-71
2021/10/23 08:24:17;;;;;;;15.80;9.02;;;;;;;;;;4378449;32;20194;-67
2021/10/23 08:26:43;;;;;;;14.10;6.80;;;;;;;;;;4378109;32;20106;-67
2021/10/23 08:29:10;;;;;;;10.05;7.00;;;;;;;;;;4378014;32;20109;-67
2021/10/23 08:31:36;;;;;;;13.43;6.53;;;;;;;;;;4378183;32;20389;-70
2021/10/23 08:34:05;;;;;;;7.65;5.18;;;;;;;;;;4378263;32;20101;-69
2021/10/23 08:36:31;;;;;;;12.32;6.60;;;;;;;;;;4387301;32;20129;-71
2021/10/23 08:38:56;;;;;;;6.62;5.30;;;;;;;;;;4393115;32;20133;-70
2021/10/23 08:41:24;;;;;;;6.95;5.35;;;;;;;;;;4391611;32;20133;-69
2021/10/23 08:43:51;;;;;;;12.23;6.28;;;;;;;;;;4392082;32;20094;-70
2021/10/23 08:46:21;;;;;;;8.70;5.00;;;;;;;;;;4393346;32;20101;-70
2021/10/23 08:48:50;;;;;;;7.45;4.10;;;;;;;;;;4391545;32;20115;-71
2021/10/23 08:51:17;;;;;;;12.50;4.25;;;;;;;;;;4391938;32;20233;-72
2021/10/23 08:53:42;;;;;;;4.78;3.72;;;;;;;;;;4393058;32;20088;-70
2021/10/23 08:56:09;;;;;;;11.57;4.10;;;;;;;;;;4393125;32;20094;-70
2021/10/23 08:58:35;;;;;;;6.93;4.03;;;;;;;;;;4392905;32;20527;-68
2021/10/23 09:01:01;;;;;;;6.35;4.32;;;;;;;;;;4393063;32;20136;-70
2021/10/23 09:03:27;;;;;;;4.28;3.33;;;;;;;;;;4392998;32;20518;-72
2021/10/23 09:05:53;;;;;;;6.35;4.00;;;;;;;;;;4393169;32;20126;-69
2021/10/23 09:08:19;;;;;;;6.93;4.15;;;;;;;;;;4391560;32;20183;-70
2021/10/23 09:10:49;;;;;;;8.30;4.93;;;;;;;;;;4392850;32;20113;-71
2021/10/23 09:13:29;;;;;;;10.52;4.57;;;;;;;;;;4391844;32;20121;-71
2021/10/23 09:15:57;;;;;;;5.47;3.80;;;;;;;;;;4391941;32;20198;-75
2021/10/23 09:18:48;;;;;;;10.35;4.75;;;;;;;;;;4392814;32;20113;-68
2021/10/23 09:21:21;;;;;;;4.53;3.28;;;;;;;;;;4391316;32;20105;-74
2021/10/23 09:23:48;;;;;;;8.60;3.87;;;;;;;;;;4392820;32;20102;-70
2021/10/23 09:26:33;;;;;;;5.35;3.35;;;;;;;;;;4393232;32;20112;-72
2021/10/23 09:29:32;;;;;;;;;;;;;;;;;;4391915;32;20164;-71
2021/10/23 09:31:58;;;;;;;5.57;4.22;;;;;;;;;;4359035;32;20436;-75
2021/10/23 09:34:24;;;;;;;3.30;2.80;;;;;;;;;;4392702;32;20426;-77
2021/10/23 09:36:51;;;;;;;3.42;2.47;;;;;;;;;;4393383;32;20209;-77
2021/10/23 09:39:26;;;;;;;2.40;2.20;;;;;;;;;;4393161;32;20089;-77
2021/10/23 09:42:13;;;;;;;7.60;3.63;;;;;;;;;;4391623;32;20626;-79
2021/10/23 09:45:04;;;;;;;7.03;4.05;;;;;;;;;;4392980;32;20197;-74
2021/10/23 09:47:46;;;;;;;7.60;2.80;;;;;;;;;;4392841;32;20085;-74
2021/10/23 09:50:21;;;;;;;5.15;2.70;;;;;;;;;;4393545;32;20114;-74
2021/10/23 09:53:06;;;;;;;;;;;;;;;;;;4392260;32;20078;-75
2021/10/23 09:55:34;;;;;;;8.45;3.12;;;;;;;;;;4393015;32;19957;-76
2021/10/23 09:58:41;;;;;;;6.22;3.25;;;;;;;;;;4403423;32;20093;-75
2021/10/23 10:01:07;;;;;;;4.47;2.83;;;;;;;;;;4387857;32;20113;-77
2021/10/23 10:03:33;;;;;;;3.62;2.72;;;;;;;;;;4381191;32;20169;-78
2021/10/23 10:05:59;;;;;;;5.45;3.12;;;;;;;;;;4391308;32;20140;-74
2021/10/23 10:08:29;;;;;;;5.28;3.10;;;;;;;;;;4392503;32;20508;-74
2021/10/23 10:10:55;;;;;;;6.15;3.15;;;;;;;;;;4392729;32;20116;-72
2021/10/23 10:13:23;;;;;;;3.50;2.60;;;;;;;;;;4392388;32;20205;-73
2021/10/23 10:15:58;;;;;;;5.35;2.33;;;;;;;;;;4392369;32;20165;-71
2021/10/23 10:18:24;;;;;;;11.93;3.35;;;;;;;;;;4392271;32;20124;-71
2021/10/23 10:20:55;;;;;;;4.97;3.25;;;;;;;;;;4392044;32;20544;-72
2021/10/23 10:23:35;;;;;;;4.65;3.45;;;;;;;;;;4392214;32;20101;-68
2021/10/23 10:26:31;;;;;;;3.92;3.00;;;;;;;;;;4392664;32;20184;-68
2021/10/23 10:29:11;;;;;;;8.57;3.37;;;;;;;;;;4392280;32;20202;-69
2021/10/23 10:34:39;;;;;;;3.78;2.80;;;;;;;;;;4391029;32;20113;-65
2021/10/23 10:42:51;;;;;;;7.32;3.40;;;;;;;;;;4392061;32;20532;-69
2021/10/23 10:46:04;;;;;;;4.50;2.95;;;;;;;;;;4387701;32;20121;-68
2021/10/23 10:48:34;;;;;;;7.30;3.58;;;;;;;;;;4375099;32;20121;-75
2021/10/23 10:51:07;;;;;;;7.85;3.58;;;;;;;;;;4377263;32;20101;-73
2021/10/23 10:54:04;;;;;;;6.47;3.78;;;;;;;;;;4375345;32;20121;-75
2021/10/23 10:56:42;;;;;;;4.07;2.65;;;;;;;;;;4375801;32;20121;-69
2021/10/23 10:59:08;;;;;;;4.80;3.10;;;;;;;;;;4362992;32;20465;-69
2021/10/23 11:01:34;;;;;;;4.40;2.97;;;;;;;;;;4375263;32;20118;-71
2021/10/23 11:04:08;;;;;;;4.25;2.60;;;;;;;;;;4338262;32;20113;-66
2021/10/23 11:06:36;;;;;;;4.93;3.22;;;;;;;;;;4363425;32;20184;-69
2021/10/23 11:09:09;;;;;;;5.50;2.85;;;;;;;;;;4378989;32;20509;-68
2021/10/23 11:11:49;;;;;;;6.78;3.25;;;;;;;;;;4379067;32;20188;-68
2021/10/23 11:14:21;;;;;;;5.37;3.53;;;;;;;;;;4378893;32;20532;-72
2021/10/23 11:16:48;;;;;;;5.07;3.35;;;;;;;;;;4378941;32;20213;-79
2021/10/23 11:19:20;;;;;;;5.03;3.67;;;;;;;;;;4378714;32;20209;-70
2021/10/23 11:21:48;;;;;;;7.65;3.65;;;;;;;;;;4379114;32;20132;-68
2021/10/23 11:24:14;;;;;;;4.43;3.30;;;;;;;;;;4377478;32;20101;-71
2021/10/23 11:26:46;;;;;;;4.80;3.58;;;;;;;;;;4378889;32;20119;-72
2021/10/23 11:29:19;;;;;;;10.18;4.62;;;;;;;;;;4378885;32;20210;-68
2021/10/23 11:31:45;;;;;;;10.55;5.45;;;;;;;;;;4378730;32;20325;-70
2021/10/23 11:34:41;;;;;;;8.25;4.90;;;;;;;;;;4378884;32;20511;-68
2021/10/23 11:37:10;;;;;;;10.88;5.28;;;;;;;;;;4390303;32;20449;-69
2021/10/23 11:40:00;;;;;;;10.27;6.20;;;;;;;;;;4393547;32;20108;-71
2021/10/23 11:42:27;;;;;;;3.60;2.65;;;;;;;;;;4392769;32;20112;-71
2021/10/23 11:44:58;;;;;;;8.45;4.72;;;;;;;;;;4392317;32;20114;-71
2021/10/23 11:47:25;;;;;;;5.55;4.00;;;;;;;;;;4393269;32;20113;-74
2021/10/23 11:49:51;;;;;;;7.12;5.47;;;;;;;;;;4392146;32;20437;-72
2021/10/23 11:52:24;;;;;;;5.28;3.75;;;;;;;;;;4391366;32;20116;-76
2021/10/23 11:54:50;;;;;;;6.97;3.97;;;;;;;;;;4382820;32;20485;-77
2021/10/23 11:57:51;;;;;;;5.75;3.85;;;;;;;;;;4391937;32;20115;-74
2021/10/23 12:00:20;;;;;;;7.37;4.80;;;;;;;;;;4367478;32;20165;-73
2021/10/23 12:02:48;;;;;;;12.07;5.45;;;;;;;;;;4392436;32;20122;-72
2021/10/23 12:05:25;;;;;;;9.00;5.18;;;;;;;;;;4393579;32;20536;-73
2021/10/23 12:08:28;;;;;;;8.23;6.35;;;;;;;;;;4393844;32;20079;-75
2021/10/23 12:11:19;;;;;;;8.27;4.43;;;;;;;;;;4361430;32;20133;-74
2021/10/23 12:13:51;;;;;;;7.07;4.30;;;;;;;;;;4377501;32;20125;-72
2021/10/23 12:16:26;;;;;;;12.18;6.68;;;;;;;;;;4378939;32;20113;-72
2021/10/23 12:19:03;;;;;;;10.23;6.62;;;;;;;;;;4378627;32;20145;-72
2021/10/23 12:21:37;;;;;;;14.45;6.78;;;;;;;;;;4378157;32;20109;-71
2021/10/23 12:24:16;;;;;;;10.38;7.25;;;;;;;;;;4378231;32;20516;-73
2021/10/23 12:26:42;;;;;;;11.45;6.55;;;;;;;;;;4378671;32;20126;-72
2021/10/23 12:29:10;;;;;;;12.98;7.97;;;;;;;;;;4384214;32;20108;-76
2021/10/23 12:32:03;;;;;;;14.98;8.98;;;;;;;;;;4393450;32;20118;-72
2021/10/23 12:34:52;;;;;;;14.55;9.15;;;;;;;;;;4393136;32;20105;-73
2021/10/23 12:37:27;;;;;;;25.60;12.20;;;;;;;;;;4393331;32;20496;-73
2021/10/23 12:40:08;;;;;;;20.25;11.18;;;;;;;;;;4393338;32;20104;-71
2021/10/23 12:43:03;;;;;;;18.87;12.45;;;;;;;;;;4393826;32;20192;-69
2021/10/23 12:45:32;;;;;;;26.80;17.87;;;;;;;;;;4395574;32;20286;-72
2021/10/23 12:48:01;;;;;;;29.12;19.10;;;;;;;;;;4394293;32;20436;-71
2021/10/23 12:50:28;;;;;;;34.15;19.75;;;;;;;;;;4393206;32;20222;-71
2021/10/23 12:52:54;;;;;;;22.77;17.12;;;;;;;;;;4393193;32;20529;-72
2021/10/23 12:55:21;;;;;;;17.10;10.48;;;;;;;;;;4393145;32;20194;-70
2021/10/23 12:57:47;;;;;;;13.00;7.45;;;;;;;;;;4392742;32;20101;-75
2021/10/23 13:00:14;;;;;;;10.60;6.12;;;;;;;;;;4391416;32;20105;-74
2021/10/23 13:02:40;;;;;;;13.80;5.70;;;;;;;;;;4393392;32;20121;-67
2021/10/23 13:05:06;;;;;;;12.23;6.32;;;;;;;;;;4393410;32;20106;-70
2021/10/23 13:07:32;;;;;;;18.80;7.87;;;;;;;;;;4393191;32;20540;-70
2021/10/23 13:09:58;;;;;;;11.48;8.00;;;;;;;;;;4392798;32;20125;-68
2021/10/23 13:12:24;;;;;;;9.85;5.90;;;;;;;;;;4393028;32;20149;-69
2021/10/23 13:14:50;;;;;;;11.93;7.22;;;;;;;;;;4391341;32;20106;-69
2021/10/23 13:17:16;;;;;;;8.43;6.90;;;;;;;;;;4393110;32;20136;-70
2021/10/23 13:19:42;;;;;;;18.05;9.15;;;;;;;;;;4392541;32;20567;-70
2021/10/23 13:22:07;;;;;;;13.18;7.37;;;;;;;;;;4393175;32;20121;-67
2021/10/23 13:24:33;;;;;;;8.52;6.00;;;;;;;;;;4391199;32;20265;-67
2021/10/23 13:26:59;;;;;;;11.32;5.68;;;;;;;;;;4389396;32;20152;-66
2021/10/23 13:29:25;;;;;;;13.35;7.37;;;;;;;;;;4382416;32;20111;-66
2021/10/23 13:31:52;;;;;;;10.93;6.68;;;;;;;;;;4354223;32;20121;-64
2021/10/23 13:34:19;;;;;;;13.32;8.70;;;;;;;;;;4351593;32;20090;-64
2021/10/23 13:36:45;;;;;;;18.02;12.32;;;;;;;;;;4364943;32;20086;-67
2021/10/23 13:39:11;;;;;;;14.48;7.70;;;;;;;;;;4391997;32;20096;-64
2021/10/23 13:41:37;;;;;;;15.60;9.35;;;;;;;;;;4353783;32;20133;-66
2021/10/23 13:44:04;;;;;;;19.00;11.30;;;;;;;;;;4392490;32;20181;-67
2021/10/23 14:02:02;;;;;;;10.50;6.47;;;;;;;;;;4579315;27;20106;-63
2021/10/23 14:04:28;;;;;;;11.55;6.62;;;;;;;;;;4332401;33;20125;-62
2021/10/23 14:06:54;;;;;;;10.30;6.75;;;;;;;;;;4326273;33;20103;-63
2021/10/23 14:09:20;;;;;;;10.88;6.50;;;;;;;;;;4317976;33;20148;-64
2021/10/23 14:11:47;;;;;;;12.48;7.05;;;;;;;;;;4327419;33;20446;-61
2021/10/23 14:14:13;;;;;;;14.48;8.70;;;;;;;;;;4332804;33;20438;-63
2021/10/23 14:16:40;;;;;;;17.23;7.72;;;;;;;;;;4332789;33;20521;-61
2021/10/23 14:19:06;;;;;;;14.15;6.07;;;;;;;;;;4318977;33;20106;-64
2021/10/23 14:21:32;;;;;;;6.78;5.07;;;;;;;;;;4332220;33;20174;-62
2021/10/23 14:23:58;;;;;;;8.57;5.65;;;;;;;;;;4332774;33;20115;-60
2021/10/23 14:26:24;;;;;;;13.00;7.30;;;;;;;;;;4318966;33;20185;-64
2021/10/23 14:28:50;;;;;;;6.57;3.97;;;;;;;;;;4332427;33;20118;-63
2021/10/23 14:31:18;;;;;;;6.70;4.12;;;;;;;;;;4318429;33;20248;-63
2021/10/23 14:33:45;;;;;;;5.28;3.78;;;;;;;;;;4332231;33;20109;-61
2021/10/23 14:36:10;;;;;;;10.70;4.40;;;;;;;;;;4331562;33;20118;-61
2021/10/23 14:38:36;;;;;;;5.20;3.65;;;;;;;;;;4332192;33;20111;-63
2021/10/23 14:41:04;;;;;;;6.55;4.12;;;;;;;;;;4317213;33;20586;-63
2021/10/23 14:43:30;;;;;;;6.00;3.55;;;;;;;;;;4311534;33;20110;-62
2021/10/23 14:45:56;;;;;;;4.50;3.12;;;;;;;;;;4326862;33;20129;-61
2021/10/23 14:48:23;;;;;;;6.47;3.85;;;;;;;;;;4308388;33;20739;-62
2021/10/23 14:50:49;;;;;;;5.22;3.45;;;;;;;;;;4334412;33;20528;-62
2021/10/23 14:53:14;;;;;;;6.07;3.40;;;;;;;;;;4333095;33;20098;-64
2021/10/23 14:55:40;;;;;;;10.77;3.17;;;;;;;;;;4324815;33;20103;-63
2021/10/23 14:58:08;;;;;;;10.90;3.60;;;;;;;;;;4333221;33;20107;-63
2021/10/23 15:00:35;;;;;;;4.57;2.60;;;;;;;;;;4334065;33;20095;-65
2021/10/23 15:03:01;;;;;;;8.48;4.07;;;;;;;;;;4320622;33;20102;-63
2021/10/23 15:05:27;;;;;;;5.05;3.40;;;;;;;;;;4334285;33;20117;-62
2021/10/23 15:07:53;;;;;;;17.08;3.45;;;;;;;;;;4333974;33;20516;-62
2021/10/23 15:10:19;;;;;;;7.72;3.40;;;;;;;;;;4334071;33;20574;-61
2021/10/23 15:12:45;;;;;;;5.05;3.42;;;;;;;;;;4333992;33;20219;-63
2021/10/23 15:15:18;;;;;;;7.53;3.90;;;;;;;;;;4334058;33;20530;-63
2021/10/23 15:17:48;;;;;;;13.70;4.15;;;;;;;;;;4334017;33;20091;-63
2021/10/23 15:20:16;;;;;;;9.85;4.43;;;;;;;;;;4333904;33;20119;-63
2021/10/23 15:22:42;;;;;;;7.03;4.00;;;;;;;;;;4333991;33;20429;-63
2021/10/23 15:25:09;;;;;;;5.75;3.53;;;;;;;;;;4333871;33;20121;-61
2021/10/23 15:27:35;;;;;;;8.50;3.20;;;;;;;;;;4333664;33;20453;-61
2021/10/23 15:30:02;;;;;;;7.97;3.92;;;;;;;;;;4320519;33;20122;-62
2021/10/23 15:32:28;;;;;;;5.82;3.83;;;;;;;;;;4333724;33;20123;-64
2021/10/23 15:34:55;;;;;;;8.52;3.10;;;;;;;;;;4334188;33;20134;-62
2021/10/23 15:37:21;;;;;;;5.32;3.30;;;;;;;;;;4328696;33;20624;-63
2021/10/23 15:39:48;;;;;;;4.28;3.12;;;;;;;;;;4319329;33;20114;-69
2021/10/23 15:42:15;;;;;;;3.10;2.75;;;;;;;;;;4313593;33;20096;-61
2021/10/23 15:44:42;;;;;;;7.10;3.10;;;;;;;;;;4320462;33;20121;-61
2021/10/23 15:47:10;;;;;;;5.93;3.12;;;;;;;;;;4320064;33;20123;-62
2021/10/23 15:49:37;;;;;;;3.97;2.80;;;;;;;;;;4320632;33;20261;-62
2021/10/23 15:52:03;;;;;;;5.15;2.72;;;;;;;;;;4332900;33;20170;-64